Time;durP1;ratioP1;P1;durP2;ratioP2;P2;SDS_P1;SDS_P2;PMS_P1;PMS_P2;Temp;Humidity;BMP_temperature;BMP_pressure;BME280_temperature;BME280_humidity;BME280_pressure;Samples;Min_cycle;Max_cycle;Signal;HPM_P1;HPM_P2
2022/04/25 00:00:42;;;;;;;3.87;3.33;;;;;;;9.98;nan;98567.88;5042645;28;20217;-73
2022/04/25 00:03:07;;;;;;;3.30;3.00;;;;;;;9.98;nan;98567.88;5038251;28;20455;-75
2022/04/25 00:05:33;;;;;;;3.03;2.80;;;;;;;9.97;nan;98572.31;5040096;28;20260;-73
2022/04/25 00:07:58;;;;;;;4.70;3.27;;;;;;;9.94;nan;98569.91;5036795;28;20232;-74
2022/04/25 00:10:23;;;;;;;4.70;3.00;;;;;;;9.93;nan;98570.84;5036485;28;20771;-76
2022/04/25 00:12:49;;;;;;;3.30;2.70;;;;;;;9.92;nan;98573.63;5037466;28;20209;-73
2022/04/25 00:15:14;;;;;;;3.60;3.30;;;;;;;9.88;nan;98575.66;5035819;28;20222;-74
2022/04/25 00:17:40;;;;;;;3.60;2.93;;;;;;;9.88;nan;98575.66;5030983;28;20529;-73
2022/04/25 00:20:08;;;;;;;2.97;2.73;;;;;;;9.89;nan;98582.56;5027775;28;20214;-73
2022/04/25 00:22:34;;;;;;;4.05;3.25;;;;;;;9.89;nan;98576.47;5031257;28;20881;-76
2022/04/25 00:25:00;;;;;;;3.10;2.80;;;;;;;9.90;nan;98578.97;5033745;28;20232;-74
2022/04/25 00:27:28;;;;;;;2.75;2.55;;;;;;;9.89;nan;98574.69;5042841;28;20193;-74
2022/04/25 00:29:54;;;;;;;3.85;3.55;;;;;;;9.88;nan;98578.28;5032614;28;20741;-73
2022/04/25 00:32:19;;;;;;;3.47;3.17;;;;;;;9.90;nan;98570.28;5038571;28;20429;-74
2022/04/25 00:34:45;;;;;;;3.83;3.40;;;;;;;9.90;nan;98568.47;5036258;28;20465;-75
2022/04/25 00:37:10;;;;;;;3.10;2.90;;;;;;;9.89;nan;98568.63;5046432;28;20747;-73
2022/04/25 00:39:35;;;;;;;4.00;3.60;;;;;;;9.83;nan;98566.44;5032280;28;20254;-75
2022/04/25 00:42:01;;;;;;;3.43;2.60;;;;;;;9.79;nan;98573.72;5036275;28;20201;-74
2022/04/25 00:44:26;;;;;;;3.60;3.13;;;;;;;9.77;nan;98565.13;5042386;28;20865;-75
2022/04/25 00:46:56;;;;;;;3.40;3.10;;;;;;;9.78;nan;98566.81;5044238;28;20224;-73
2022/04/25 00:49:23;;;;;;;4.80;3.83;;;;;;;9.80;nan;98564.06;5030143;28;20340;-73
2022/04/25 00:51:51;;;;;;;4.10;3.35;;;;;;;9.82;nan;98562.16;5027009;28;20516;-75
2022/04/25 00:54:17;;;;;;;4.47;3.75;;;;;;;9.83;nan;98563.81;5034742;28;20551;-73
2022/04/25 00:56:43;;;;;;;4.17;3.77;;;;;;;9.83;nan;98572.53;5032088;28;20241;-72
2022/04/25 00:59:09;;;;;;;3.30;3.00;;;;;;;9.83;nan;98575.16;5030860;28;20317;-76
2022/04/25 01:01:35;;;;;;;4.80;3.70;;;;;;;9.84;nan;98576.81;5030045;28;21165;-72
2022/04/25 01:04:00;;;;;;;3.45;3.15;;;;;;;9.87;nan;98576.59;5028581;28;20202;-73
2022/04/25 01:06:26;;;;;;;2.90;2.70;;;;;;;9.90;nan;98580.75;5042059;28;20694;-73
2022/04/25 01:08:51;;;;;;;2.83;2.30;;;;;;;9.93;nan;98580.53;5036874;28;20206;-73
2022/04/25 01:11:17;;;;;;;2.80;2.60;;;;;;;9.95;nan;98581.25;5027082;28;20240;-73
2022/04/25 01:13:44;;;;;;;2.88;2.42;;;;;;;9.95;nan;98582.06;5028190;28;20202;-73
2022/04/25 01:16:10;;;;;;;2.53;2.33;;;;;;;9.97;nan;98576.72;5030516;28;20230;-74
2022/04/25 01:18:35;;;;;;;2.70;2.50;;;;;;;9.97;nan;98574.09;5039740;28;20275;-74
2022/04/25 01:21:02;;;;;;;2.80;2.60;;;;;;;9.99;nan;98585.31;5034234;28;20630;-75
2022/04/25 01:28:58;;;;;;;2.83;2.58;;;;;;;10.01;nan;98580.75;5032086;28;20840;-74
2022/04/25 01:31:24;;;;;;;3.97;2.60;;;;;;;9.99;nan;98574.81;5026026;28;20128;-74
2022/04/25 01:33:49;;;;;;;2.43;2.07;;;;;;;9.92;nan;98569.19;5025917;28;20271;-73
2022/04/25 01:36:15;;;;;;;2.70;2.50;;;;;;;9.89;nan;98585.19;5025766;28;20234;-76
2022/04/25 01:38:40;;;;;;;3.83;2.70;;;;;;;9.89;nan;98581.72;5033267;28;20205;-75
2022/04/25 01:41:06;;;;;;;4.80;2.67;;;;;;;9.89;nan;98577.31;5033893;28;20514;-75
2022/04/25 01:43:36;;;;;;;2.33;2.13;;;;;;;9.87;nan;98576.59;5037108;28;20280;-76
2022/04/25 01:46:03;;;;;;;3.20;2.90;;;;;;;9.86;nan;98574.94;5030719;28;20229;-75
2022/04/25 01:48:29;;;;;;;3.30;3.00;;;;;;;9.84;nan;98566.34;5045567;28;20205;-74
2022/04/25 01:50:55;;;;;;;2.55;2.35;;;;;;;9.85;nan;98582.91;5030112;28;20264;-74
2022/04/25 01:53:21;;;;;;;2.50;2.30;;;;;;;9.88;nan;98586.16;5033124;28;20588;-74
2022/04/25 01:55:46;;;;;;;3.07;2.87;;;;;;;9.88;nan;98588.75;5032656;28;20855;-73
2022/04/25 01:58:12;;;;;;;3.10;2.80;;;;;;;9.91;nan;98582.41;5036449;28;20205;-73
2022/04/25 02:00:37;;;;;;;3.07;2.87;;;;;;;9.91;nan;98583.28;5032406;28;20595;-76
2022/04/25 02:03:03;;;;;;;4.17;2.70;;;;;;;9.92;nan;98584.09;5039949;28;20821;-73
2022/04/25 02:05:28;;;;;;;3.97;3.60;;;;;;;9.93;nan;98576.09;5053169;22;20779;-78
2022/04/25 02:07:54;;;;;;;3.70;2.60;;;;;;;9.92;nan;98569.19;5039364;28;20665;-79
2022/04/25 02:10:19;;;;;;;3.23;2.90;;;;;;;9.90;nan;98578.13;5041935;28;20212;-76
2022/04/25 02:12:44;;;;;;;3.30;3.03;;;;;;;9.90;nan;98586.00;5045393;28;20784;-76
2022/04/25 02:15:12;;;;;;;4.23;3.30;;;;;;;9.92;nan;98590.19;5045793;28;20241;-76
2022/04/25 02:17:39;;;;;;;3.03;2.83;;;;;;;9.91;nan;98593.78;5044688;28;20218;-81
2022/04/25 02:20:05;;;;;;;2.70;2.50;;;;;;;9.92;nan;98594.59;5046020;28;20206;-75
2022/04/25 02:22:30;;;;;;;3.65;2.95;;;;;;;9.92;nan;98600.69;5044149;28;20217;-76
2022/04/25 02:24:55;;;;;;;3.90;3.60;;;;;;;9.92;nan;98600.69;5045958;28;20206;-78
2022/04/25 02:27:21;;;;;;;3.87;2.53;;;;;;;9.93;nan;98601.50;5044468;28;20205;-77
2022/04/25 02:29:48;;;;;;;2.33;2.13;;;;;;;9.88;nan;98607.13;5045685;28;20210;-78
2022/04/25 02:32:13;;;;;;;3.13;2.83;;;;;;;9.83;nan;98606.66;5044997;28;20852;-76
2022/04/25 02:34:40;;;;;;;3.13;2.90;;;;;;;9.81;nan;98613.78;5044583;28;20200;-80
2022/04/25 02:37:06;;;;;;;4.30;2.47;;;;;;;9.77;nan;98612.34;5043253;28;20259;-76
2022/04/25 02:39:32;;;;;;;3.20;2.75;;;;;;;9.74;nan;98605.53;5044860;28;20247;-80
2022/04/25 02:41:57;;;;;;;2.73;2.40;;;;;;;9.72;nan;98602.22;5045500;28;20584;-76
2022/04/25 02:44:22;;;;;;;3.23;2.57;;;;;;;9.70;nan;98609.34;5044730;28;20194;-79
2022/04/25 02:46:48;;;;;;;2.87;2.53;;;;;;;9.69;nan;98612.94;5044571;28;20304;-80
2022/04/25 02:49:13;;;;;;;3.50;3.20;;;;;;;9.71;nan;98612.81;5043315;28;20223;-76
2022/04/25 02:51:39;;;;;;;2.50;2.30;;;;;;;9.72;nan;98609.22;5045492;28;20307;-77
2022/04/25 02:54:04;;;;;;;3.20;2.70;;;;;;;9.71;nan;98618.06;5045007;28;20747;-76
2022/04/25 02:56:29;;;;;;;2.17;2.00;;;;;;;9.69;nan;98602.44;5044353;28;20298;-78
2022/04/25 02:58:55;;;;;;;2.43;2.23;;;;;;;9.69;nan;98604.22;5045597;28;20227;-78
2022/04/25 03:01:21;;;;;;;3.60;2.50;;;;;;;9.68;nan;98606.00;5046507;28;20284;-76
2022/04/25 03:03:46;;;;;;;2.67;2.10;;;;;;;9.67;nan;98601.72;5045923;28;20220;-77
2022/04/25 03:06:11;;;;;;;3.63;2.40;;;;;;;9.62;nan;98589.91;5044532;28;20503;-79
2022/04/25 03:08:39;;;;;;;3.90;3.10;;;;;;;9.58;nan;98597.16;5043899;28;20205;-80
2022/04/25 03:11:08;;;;;;;2.45;2.25;;;;;;;9.59;nan;98606.72;5045796;28;20293;-76
2022/04/25 03:13:34;;;;;;;4.00;2.40;;;;;;;9.61;nan;98607.41;5044770;28;20216;-75
2022/04/25 03:16:00;;;;;;;2.37;1.80;;;;;;;9.61;nan;98604.78;5045048;28;20221;-81
2022/04/25 03:18:25;;;;;;;2.47;2.28;;;;;;;9.58;nan;98612.88;5045748;28;20491;-78
2022/04/25 03:20:51;;;;;;;2.47;2.27;;;;;;;9.58;nan;98614.69;5049474;28;20673;-79
2022/04/25 03:23:18;;;;;;;2.43;2.13;;;;;;;9.59;nan;98614.59;5050024;28;20193;-76
2022/04/25 03:25:45;;;;;;;2.60;2.40;;;;;;;9.63;nan;98612.56;5047194;28;20256;-76
2022/04/25 03:28:11;;;;;;;3.38;2.38;;;;;;;9.65;nan;98619.34;5048857;28;20312;-80
2022/04/25 03:30:36;;;;;;;5.40;3.50;;;;;;;9.69;nan;98619.94;5047749;28;20635;-76
2022/04/25 03:33:03;;;;;;;5.30;2.70;;;;;;;9.70;nan;98621.63;5047930;28;20447;-76
2022/04/25 03:35:30;;;;;;;3.90;2.80;;;;;;;9.71;nan;98624.13;5048804;28;20218;-81
2022/04/25 03:37:57;;;;;;;2.88;2.55;;;;;;;9.70;nan;98611.97;5047833;28;20585;-78
2022/04/25 03:40:23;;;;;;;3.67;3.15;;;;;;;9.71;nan;98618.06;5048284;28;20621;-78
2022/04/25 03:42:48;;;;;;;3.67;2.90;;;;;;;9.70;nan;98613.78;5048747;28;20240;-76
2022/04/25 03:45:16;;;;;;;2.90;2.57;;;;;;;9.70;nan;98619.84;5047968;28;20312;-76
2022/04/25 03:47:43;;;;;;;2.58;2.25;;;;;;;9.69;nan;98615.56;5048206;28;20282;-79
2022/04/25 03:50:10;;;;;;;2.50;2.30;;;;;;;9.64;nan;98611.59;5048796;28;20212;-78
2022/04/25 03:52:36;;;;;;;2.85;2.65;;;;;;;9.61;nan;98619.69;5047417;28;20213;-76
2022/04/25 03:58:07;;;;;;;2.75;2.53;;;;;;;9.61;nan;98619.69;5047984;28;20228;-78
2022/04/25 04:00:34;;;;;;;3.17;2.60;;;;;;;9.58;nan;98619.94;5049309;28;20601;-77
2022/04/25 04:03:00;;;;;;;3.78;3.13;;;;;;;9.60;nan;98616.25;5048059;28;20479;-81
2022/04/25 04:05:27;;;;;;;2.77;2.50;;;;;;;9.55;nan;98607.88;5050084;28;20247;-76
2022/04/25 04:07:53;;;;;;;2.70;2.50;;;;;;;9.53;nan;98608.00;5049937;28;20608;-76
2022/04/25 04:10:19;;;;;;;2.35;2.17;;;;;;;9.55;nan;98618.38;5050255;28;20766;-78
2022/04/25 04:12:48;;;;;;;5.38;2.40;;;;;;;9.55;nan;98618.38;5049243;28;20607;-76
2022/04/25 04:15:15;;;;;;;3.67;2.70;;;;;;;9.55;nan;98622.78;5050104;28;20202;-77
2022/04/25 04:17:40;;;;;;;3.00;2.80;;;;;;;9.56;nan;98624.44;5049419;28;20229;-76
2022/04/25 04:20:08;;;;;;;3.17;2.87;;;;;;;9.58;nan;98622.56;5049465;28;20213;-76
2022/04/25 04:22:36;;;;;;;4.25;3.08;;;;;;;9.60;nan;98625.91;5045393;28;20271;-78
2022/04/25 04:25:05;;;;;;;3.25;2.55;;;;;;;9.64;nan;98628.19;5050199;28;20209;-77
2022/04/25 04:27:31;;;;;;;3.40;2.85;;;;;;;9.64;nan;98630.81;5050256;28;20941;-75
2022/04/25 04:29:58;;;;;;;3.00;2.33;;;;;;;9.63;nan;98629.13;5049613;28;20213;-75
2022/04/25 04:32:25;;;;;;;2.78;2.53;;;;;;;9.63;nan;98630.91;5049656;28;20201;-80
2022/04/25 04:34:51;;;;;;;2.97;2.78;;;;;;;9.63;nan;98631.75;5049175;28;20228;-78
2022/04/25 04:37:16;;;;;;;2.70;2.40;;;;;;;9.63;nan;98626.50;5046890;28;20223;-77
2022/04/25 04:39:42;;;;;;;3.87;2.57;;;;;;;9.61;nan;98631.00;5047378;28;20239;-78
2022/04/25 04:42:07;;;;;;;2.60;2.27;;;;;;;9.61;nan;98638.88;5048145;28;20233;-76
2022/04/25 04:44:32;;;;;;;2.53;1.97;;;;;;;9.61;nan;98636.25;5048376;28;20209;-76
2022/04/25 04:46:58;;;;;;;2.77;1.73;;;;;;;9.59;nan;98634.72;5047107;28;20256;-79
2022/04/25 04:49:23;;;;;;;3.63;2.57;;;;;;;9.57;nan;98639.25;5047893;28;20214;-79
2022/04/25 04:51:49;;;;;;;10.53;3.03;;;;;;;9.53;nan;98638.63;5047786;28;20228;-75
2022/04/25 04:54:14;;;;;;;7.00;2.73;;;;;;;9.51;nan;98640.53;5050264;28;20799;-79
2022/04/25 04:56:39;;;;;;;2.60;2.40;;;;;;;9.50;nan;98634.47;5047573;28;20320;-78
2022/04/25 04:59:05;;;;;;;3.37;2.27;;;;;;;9.48;nan;98638.16;5048508;28;20209;-77
2022/04/25 05:01:32;;;;;;;2.30;2.00;;;;;;;9.48;nan;98638.16;5048406;28;20230;-76
2022/04/25 05:03:58;;;;;;;2.80;2.55;;;;;;;9.47;nan;98641.69;5041777;28;20198;-76
2022/04/25 05:06:28;;;;;;;5.88;2.58;;;;;;;9.47;nan;98633.84;5043381;28;20763;-82
2022/04/25 05:08:54;;;;;;;3.20;2.38;;;;;;;9.46;nan;98643.50;5046677;28;20636;-76
2022/04/25 05:11:19;;;;;;;2.97;2.65;;;;;;;9.45;nan;98633.09;5047180;28;20206;-76
2022/04/25 05:13:45;;;;;;;3.00;2.67;;;;;;;9.48;nan;98646.00;5046302;28;20692;-80
2022/04/25 05:16:10;;;;;;;3.50;2.77;;;;;;;9.58;nan;98648.78;5048427;28;20252;-80
2022/04/25 05:18:36;;;;;;;5.40;2.20;;;;;;;9.73;nan;98650.25;5043967;28;20746;-77
2022/04/25 05:21:04;;;;;;;2.77;2.40;;;;;;;9.85;nan;98649.31;5045620;28;20209;-77
2022/04/25 05:23:30;;;;;;;2.53;2.28;;;;;;;10.02;nan;98652.44;5045630;28;20193;-79
2022/04/25 05:25:55;;;;;;;2.90;1.80;;;;;;;10.08;nan;98655.44;5046422;28;20724;-79
2022/04/25 05:28:22;;;;;;;5.70;2.47;;;;;;;10.15;nan;98661.03;5046346;28;20263;-77
2022/04/25 05:30:48;;;;;;;2.92;2.63;;;;;;;10.23;nan;98649.94;5037628;28;20201;-81
2022/04/25 05:33:13;;;;;;;2.63;2.05;;;;;;;10.42;nan;98652.84;5041268;28;20213;-84
2022/04/25 05:35:39;;;;;;;2.10;1.63;;;;;;;10.77;nan;98650.03;5040538;28;20225;-78
2022/04/25 05:38:10;;;;;;;3.60;2.60;;;;;;;11.26;nan;98646.09;5041886;28;20216;-82
2022/04/25 05:40:36;;;;;;;2.50;2.30;;;;;;;11.78;nan;98648.00;5041213;28;20492;-76
2022/04/25 05:43:03;;;;;;;3.08;2.30;;;;;;;12.32;nan;98641.66;5039901;28;20312;-77
2022/04/25 05:45:29;;;;;;;1.80;1.70;;;;;;;12.76;nan;98656.22;5040288;28;20255;-80
2022/04/25 05:47:57;;;;;;;2.50;2.30;;;;;;;13.06;nan;98665.03;5041438;28;20529;-75
2022/04/25 05:53:08;;;;;;;2.45;2.15;;;;;;;13.05;nan;98658.09;5041591;28;20210;-80
2022/04/25 05:55:33;;;;;;;2.90;2.37;;;;;;;12.78;nan;98659.56;5040947;28;20267;-76
2022/04/25 05:58:02;;;;;;;2.53;2.30;;;;;;;12.51;nan;98661.97;5041337;28;20484;-79
2022/04/25 06:00:29;;;;;;;2.92;2.40;;;;;;;12.28;nan;98670.03;5040589;28;20678;-78
2022/04/25 06:02:55;;;;;;;2.70;2.50;;;;;;;12.06;nan;98671.03;5039089;28;20240;-80
2022/04/25 06:05:21;;;;;;;3.07;2.67;;;;;;;11.90;nan;98673.31;5039345;28;20288;-77
2022/04/25 06:07:48;;;;;;;3.17;2.70;;;;;;;11.80;nan;98672.38;5041422;28;20209;-76
2022/04/25 06:10:15;;;;;;;3.05;2.85;;;;;;;11.75;nan;98672.78;5041072;28;20221;-82
2022/04/25 06:12:47;;;;;;;5.05;3.80;;;;;;;11.69;nan;98665.38;5041148;28;20217;-81
2022/04/25 06:15:12;;;;;;;3.78;2.85;;;;;;;11.63;nan;98660.63;5039304;28;20254;-80
2022/04/25 06:17:38;;;;;;;3.63;3.33;;;;;;;11.66;nan;98655.94;5040523;28;20247;-81
2022/04/25 06:20:05;;;;;;;2.90;2.70;;;;;;;12.03;nan;98657.31;5041121;28;20300;-80
2022/04/25 06:22:30;;;;;;;3.58;2.47;;;;;;;12.56;nan;98651.88;5036614;28;20811;-76
2022/04/25 06:24:56;;;;;;;3.40;2.80;;;;;;;13.12;nan;98640.75;5038985;28;20315;-76
2022/04/25 06:27:21;;;;;;;2.87;2.67;;;;;;;13.76;nan;98644.66;5039922;28;20232;-76
2022/04/25 06:29:47;;;;;;;3.37;2.80;;;;;;;14.16;nan;98636.50;5040304;28;20205;-81
2022/04/25 06:32:13;;;;;;;2.90;2.60;;;;;;;14.47;nan;98638.03;5040179;28;20675;-78
2022/04/25 06:34:42;;;;;;;3.33;2.60;;;;;;;14.92;nan;98643.41;5038699;28;20210;-76
2022/04/25 06:37:08;;;;;;;2.92;2.50;;;;;;;15.39;nan;98642.34;5039783;28;20206;-80
2022/04/25 06:39:33;;;;;;;2.77;2.47;;;;;;;15.80;nan;98642.75;5039831;28;20558;-76
2022/04/25 06:41:59;;;;;;;3.40;2.93;;;;;;;16.27;nan;98652.97;5037510;28;20212;-79
2022/04/25 06:44:27;;;;;;;3.67;3.13;;;;;;;16.44;nan;98638.78;5037565;28;20704;-80
2022/04/25 06:47:18;;;;;;;3.80;3.45;;;;;;;16.49;nan;98641.78;5126208;22;20199;-76
2022/04/25 06:49:44;;;;;;;4.95;4.03;;;;;;;16.72;nan;98641.25;4977489;28;20200;-76
2022/04/25 06:52:10;;;;;;;6.00;4.60;;;;;;;16.84;nan;98629.34;4980828;28;20548;-76
2022/04/25 06:54:35;;;;;;;4.23;3.83;;;;;;;16.96;nan;98621.94;4980364;28;20216;-77
2022/04/25 06:57:01;;;;;;;4.77;3.83;;;;;;;17.07;nan;98623.47;4979159;28;20236;-77
2022/04/25 06:59:27;;;;;;;5.40;3.70;;;;;;;17.03;nan;98634.38;4979680;28;20303;-77
2022/04/25 07:01:53;;;;;;;4.60;4.20;;;;;;;16.93;nan;98654.09;4981929;28;20865;-77
2022/04/25 07:04:19;;;;;;;4.72;4.22;;;;;;;16.72;nan;98668.59;4981337;28;20550;-77
2022/04/25 07:06:45;;;;;;;5.28;4.78;;;;;;;16.47;nan;98662.34;4979779;28;20271;-78
2022/04/25 07:09:12;;;;;;;5.10;4.60;;;;;;;16.32;nan;98667.41;4982133;28;20201;-77
2022/04/25 07:11:43;;;;;;;5.05;4.57;;;;;;;16.01;nan;98674.16;4978587;28;20457;-78
2022/04/25 07:14:14;;;;;;;5.72;4.03;;;;;;;15.87;nan;98670.25;4981891;28;20207;-77
2022/04/25 07:16:41;;;;;;;6.90;5.57;;;;;;;15.87;nan;98667.59;4979084;28;20204;-77
2022/04/25 07:19:06;;;;;;;6.30;5.10;;;;;;;15.77;nan;98673.00;4985463;28;20195;-75
2022/04/25 07:29:48;;;;;;;6.10;5.50;;;;;;;14.81;nan;98681.44;4978992;28;20785;-77
2022/04/25 07:32:17;;;;;;;6.22;5.15;;;;;;;14.58;nan;98688.09;4979722;28;20230;-77
2022/04/25 07:34:43;;;;;;;8.40;6.07;;;;;;;14.43;nan;98693.00;4978160;28;20210;-77
2022/04/25 07:37:10;;;;;;;8.15;7.35;;;;;;;14.32;nan;98701.94;4978597;28;20223;-77
2022/04/25 07:39:35;;;;;;;9.05;7.35;;;;;;;14.14;nan;98693.06;4981063;28;20212;-77
2022/04/25 07:42:00;;;;;;;12.07;9.73;;;;;;;13.94;nan;98687.00;4981387;28;20289;-77
2022/04/25 07:44:26;;;;;;;9.43;8.03;;;;;;;13.79;nan;98685.75;4979122;28;20203;-76
2022/04/25 07:46:53;;;;;;;10.00;7.60;;;;;;;13.63;nan;98691.59;4976151;28;20702;-77
2022/04/25 07:49:18;;;;;;;9.77;7.85;;;;;;;13.59;nan;98688.44;4980362;28;20211;-77
2022/04/25 07:51:43;;;;;;;9.37;8.23;;;;;;;13.72;nan;98686.34;4977337;28;20229;-77
2022/04/25 07:54:09;;;;;;;10.83;9.57;;;;;;;13.94;nan;98681.72;4978889;28;20270;-77
2022/04/25 07:56:38;;;;;;;12.20;8.50;;;;;;;14.15;nan;98687.66;4975946;28;20266;-76
2022/04/25 07:59:05;;;;;;;14.10;8.85;;;;;;;14.34;nan;98685.94;4979419;28;20553;-77
2022/04/25 08:01:32;;;;;;;12.77;11.02;;;;;;;14.48;nan;98684.63;4980703;28;20778;-77
2022/04/25 08:03:58;;;;;;;10.90;8.20;;;;;;;14.56;nan;98685.59;4980529;28;20223;-76
2022/04/25 08:06:24;;;;;;;11.00;8.20;;;;;;;14.48;nan;98688.09;5006822;23;20345;-74
2022/04/25 08:08:50;;;;;;;10.73;8.55;;;;;;;14.35;nan;98685.78;5016188;28;20271;-75
2022/04/25 08:11:16;;;;;;;13.07;10.00;;;;;;;14.36;nan;98690.06;5020586;28;20214;-75
2022/04/25 08:19:13;;;;;;;14.25;10.68;;;;;;;14.35;nan;98700.81;5013105;28;20222;-75
2022/04/25 08:21:42;;;;;;;13.68;10.95;;;;;;;14.35;nan;98701.63;5012883;28;20430;-75
2022/04/25 08:24:08;;;;;;;10.77;9.30;;;;;;;14.33;nan;98711.50;5010759;28;20202;-74
2022/04/25 08:26:33;;;;;;;12.50;10.90;;;;;;;14.29;nan;98709.31;5010649;28;20237;-75
2022/04/25 08:28:59;;;;;;;16.40;11.43;;;;;;;14.21;nan;98720.59;5013701;28;21150;-74
2022/04/25 08:31:28;;;;;;;15.40;11.80;;;;;;;14.12;nan;98716.13;5012464;28;20812;-74
2022/04/25 08:33:55;;;;;;;15.38;12.70;;;;;;;14.13;nan;98712.53;5005266;28;20623;-77
2022/04/25 08:36:21;;;;;;;20.42;13.52;;;;;;;14.17;nan;98721.84;5012712;28;20225;-75
2022/04/25 08:38:47;;;;;;;14.30;10.30;;;;;;;14.13;nan;98728.38;5014254;28;20210;-75
2022/04/25 08:41:15;;;;;;;13.80;12.33;;;;;;;14.08;nan;98723.53;5014805;28;20217;-75
2022/04/25 08:43:41;;;;;;;15.25;13.00;;;;;;;14.09;nan;98729.63;5011149;28;20462;-74
2022/04/25 08:46:11;;;;;;;15.60;13.90;;;;;;;14.10;nan;98734.78;5014216;28;20368;-75
2022/04/25 08:48:38;;;;;;;18.92;14.20;;;;;;;14.07;nan;98732.44;5022303;28;20203;-75
2022/04/25 08:51:04;;;;;;;21.48;15.07;;;;;;;14.06;nan;98738.66;5036871;28;20206;-74
2022/04/25 08:53:32;;;;;;;18.63;14.50;;;;;;;13.99;nan;98739.38;5017450;28;20210;-75
2022/04/25 08:56:00;;;;;;;28.10;16.27;;;;;;;13.86;nan;98740.50;5025248;28;20814;-75
2022/04/25 08:58:26;;;;;;;20.83;14.57;;;;;;;13.79;nan;98743.84;5014884;28;20215;-75
2022/04/25 09:00:53;;;;;;;20.65;15.40;;;;;;;13.65;nan;98756.47;5014845;28;20206;-75
2022/04/25 09:03:18;;;;;;;17.67;13.10;;;;;;;13.52;nan;98779.66;5015093;28;20226;-74
2022/04/25 09:05:44;;;;;;;4.80;3.83;;;;;;;13.12;nan;98775.22;5016300;28;20250;-74
2022/04/25 09:08:10;;;;;;;5.00;3.53;;;;;;;12.70;nan;98788.50;5011739;28;20218;-74
2022/04/25 09:10:38;;;;;;;4.03;3.30;;;;;;;12.33;nan;98783.72;5029852;28;20195;-74
2022/04/25 09:13:06;;;;;;;4.35;2.92;;;;;;;11.93;nan;98788.84;5032604;28;20218;-73
2022/04/25 09:15:32;;;;;;;3.30;3.00;;;;;;;11.60;nan;98785.34;5031029;28;20219;-72
2022/04/25 09:17:59;;;;;;;4.18;3.78;;;;;;;11.33;nan;98782.31;5033161;28;20476;-73
2022/04/25 09:20:25;;;;;;;5.00;4.10;;;;;;;11.15;nan;98806.47;5016782;28;20777;-73
2022/04/25 09:22:52;;;;;;;4.43;3.95;;;;;;;11.00;nan;98802.41;5008147;28;20663;-73
2022/04/25 09:25:18;;;;;;;4.65;4.25;;;;;;;10.93;nan;98803.84;5012524;28;20206;-73
2022/04/25 09:27:44;;;;;;;5.53;4.28;;;;;;;10.91;nan;98805.75;5013821;28;20233;-75
2022/04/25 09:30:22;;;;;;;4.97;4.47;;;;;;;10.83;nan;98814.25;5017940;28;20238;-75
2022/04/25 09:32:56;;;;;;;6.35;5.75;;;;;;;10.80;nan;98827.59;5009380;28;20961;-74
2022/04/25 09:35:29;;;;;;;7.28;4.65;;;;;;;10.71;nan;98831.78;5016877;28;20222;-74
2022/04/25 09:37:56;;;;;;;5.10;4.35;;;;;;;10.67;nan;98835.59;5011977;28;20223;-74
2022/04/25 09:40:23;;;;;;;6.30;5.80;;;;;;;10.59;nan;98840.59;5011587;28;20216;-74
2022/04/25 09:43:04;;;;;;;5.65;5.10;;;;;;;10.46;nan;98845.09;5009754;28;20245;-74
2022/04/25 09:45:34;;;;;;;4.15;3.75;;;;;;;10.33;nan;98846.00;5008074;28;20898;-75
2022/04/25 09:48:00;;;;;;;5.68;4.90;;;;;;;10.24;nan;98844.06;5013782;28;20416;-74
2022/04/25 09:50:27;;;;;;;9.33;4.90;;;;;;;10.26;nan;98836.03;5015329;28;20218;-74
2022/04/25 09:53:03;;;;;;;4.70;4.30;;;;;;;10.32;nan;98843.53;5012272;28;20261;-75
2022/04/25 09:55:36;;;;;;;8.07;4.38;;;;;;;10.39;nan;98836.84;5015702;28;20225;-77
2022/04/25 09:58:18;;;;;;;6.22;4.30;;;;;;;10.49;nan;98834.38;5018365;28;20344;-75
2022/04/25 10:00:45;;;;;;;4.00;3.60;;;;;;;10.52;nan;98829.72;5013064;28;20693;-75
2022/04/25 10:03:10;;;;;;;4.22;3.83;;;;;;;10.65;nan;98834.88;5012613;28;20494;-76
2022/04/25 10:05:51;;;;;;;4.30;3.90;;;;;;;10.74;nan;98828.91;5009852;28;20318;-76
2022/04/25 10:08:18;;;;;;;9.65;3.50;;;;;;;10.85;nan;98828.94;5008487;28;20460;-76
2022/04/25 10:10:53;;;;;;;6.35;4.32;;;;;;;10.91;nan;98837.28;5013141;28;20302;-76
2022/04/25 10:13:18;;;;;;;5.85;4.18;;;;;;;11.09;nan;98835.84;5013636;28;20495;-76
2022/04/25 10:15:45;;;;;;;4.10;3.70;;;;;;;11.22;nan;98844.44;5017317;28;20241;-75
2022/04/25 10:18:12;;;;;;;4.22;3.83;;;;;;;11.42;nan;98844.66;5013970;28;20227;-76
2022/04/25 10:20:40;;;;;;;4.03;3.65;;;;;;;11.72;nan;98849.28;5013325;28;20244;-76
2022/04/25 10:23:09;;;;;;;4.75;4.25;;;;;;;12.09;nan;98847.16;5014977;28;20218;-76
2022/04/25 10:25:36;;;;;;;4.00;3.58;;;;;;;12.50;nan;98856.06;5014485;28;20221;-76
2022/04/25 10:28:07;;;;;;;3.65;3.17;;;;;;;12.90;nan;98855.31;5018455;28;20671;-76
2022/04/25 10:30:34;;;;;;;4.15;3.80;;;;;;;13.21;nan;98847.44;5015478;28;20267;-76
2022/04/25 10:33:17;;;;;;;3.75;3.05;;;;;;;13.53;nan;98846.44;5016442;28;20248;-76
2022/04/25 10:35:47;;;;;;;5.80;4.80;;;;;;;13.71;nan;98860.66;5008981;28;20557;-76
2022/04/25 10:44:24;;;;;;;3.80;3.45;;;;;;;14.33;nan;98859.44;5029506;28;20309;-75
2022/04/25 10:47:05;;;;;;;4.23;3.83;;;;;;;14.52;nan;98857.75;5017024;28;20305;-75
2022/04/25 10:49:35;;;;;;;5.28;4.45;;;;;;;14.75;nan;98853.88;5013262;28;20236;-75
2022/04/25 10:52:02;;;;;;;3.97;3.58;;;;;;;14.93;nan;98869.84;5011769;28;20203;-75
2022/04/25 10:54:28;;;;;;;4.85;3.05;;;;;;;15.00;nan;98857.69;5010842;28;20694;-75
2022/04/25 10:57:09;;;;;;;4.15;2.92;;;;;;;14.98;nan;98858.81;5010437;28;20226;-75
2022/04/25 10:59:37;;;;;;;3.13;2.83;;;;;;;14.92;nan;98862.88;5013721;28;20210;-75
2022/04/25 11:02:23;;;;;;;3.88;3.03;;;;;;;14.87;nan;98870.38;5012360;28;20257;-75
2022/04/25 11:05:11;;;;;;;5.05;2.70;;;;;;;15.00;nan;98870.09;5010361;28;20649;-74
2022/04/25 11:07:38;;;;;;;3.13;2.42;;;;;;;15.18;nan;98868.34;5015092;28;20264;-74
2022/04/25 11:10:04;;;;;;;4.43;3.50;;;;;;;15.39;nan;98872.56;5013569;28;20297;-74
2022/04/25 11:12:58;;;;;;;2.90;2.40;;;;;;;15.63;nan;98870.22;5013528;28;20268;-75
2022/04/25 11:15:40;;;;;;;2.45;2.10;;;;;;;15.56;nan;98874.47;5008708;28;20194;-75
2022/04/25 11:18:34;;;;;;;2.40;2.20;;;;;;;15.55;nan;98871.94;5012040;28;20229;-75
2022/04/25 11:21:05;;;;;;;2.65;2.00;;;;;;;15.63;nan;98883.44;5011708;28;20210;-75
2022/04/25 11:23:33;;;;;;;3.80;2.40;;;;;;;15.68;nan;98869.78;5004896;28;20837;-75
2022/04/25 11:25:59;;;;;;;1.70;1.55;;;;;;;15.57;nan;98873.47;5006780;28;20219;-75
2022/04/25 11:28:26;;;;;;;2.42;2.13;;;;;;;15.42;nan;98873.13;5010583;28;20286;-75
2022/04/25 11:31:13;;;;;;;2.70;2.35;;;;;;;15.40;nan;98875.09;5013274;28;20202;-76
2022/04/25 11:33:50;;;;;;;3.75;1.90;;;;;;;15.41;nan;98874.09;5010235;28;20265;-75
2022/04/25 11:36:18;;;;;;;2.72;2.53;;;;;;;15.53;nan;98866.81;5011404;28;20218;-75
2022/04/25 11:41:32;;;;;;;4.50;2.60;;;;;;;15.72;nan;98865.06;5015388;28;20360;-74
2022/04/25 11:43:57;;;;;;;2.15;1.98;;;;;;;15.74;nan;98869.22;5016224;28;20598;-75
2022/04/25 11:46:27;;;;;;;2.20;1.80;;;;;;;15.70;nan;98876.63;5019552;28;20230;-76
2022/04/25 11:48:54;;;;;;;3.42;3.13;;;;;;;15.69;nan;98874.97;5015199;28;20469;-75
2022/04/25 11:51:23;;;;;;;2.85;2.53;;;;;;;15.66;nan;98877.88;5014208;28;20222;-74
2022/04/25 11:53:51;;;;;;;2.73;2.53;;;;;;;15.78;nan;98872.41;4666825;28;10006623;-75
2022/04/25 11:56:17;;;;;;;2.90;2.45;;;;;;;15.89;nan;98870.38;5015396;28;20484;-75
2022/04/25 11:58:43;;;;;;;2.50;2.27;;;;;;;15.96;nan;98862.69;5016432;28;20308;-74
2022/04/25 12:01:09;;;;;;;2.93;2.40;;;;;;;16.05;nan;98866.25;5018296;28;20201;-75
2022/04/25 12:03:36;;;;;;;2.85;2.65;;;;;;;16.17;nan;98864.19;5014943;28;20477;-75
2022/04/25 12:06:12;;;;;;;2.30;2.10;;;;;;;16.22;nan;98867.22;5013535;28;20238;-74
2022/04/25 12:17:04;;;;;;;3.53;3.20;;;;;;;16.25;nan;98851.00;5011158;28;20230;-74
2022/04/25 12:19:30;;;;;;;3.10;2.80;;;;;;;16.37;nan;98849.81;5016573;28;20260;-75
2022/04/25 12:22:00;;;;;;;3.20;3.00;;;;;;;16.48;nan;98857.50;5012861;28;20207;-75
2022/04/25 12:24:25;;;;;;;4.05;3.65;;;;;;;16.62;nan;98856.13;5014317;28;21146;-75
2022/04/25 12:26:51;;;;;;;3.03;2.63;;;;;;;16.72;nan;98853.38;5016746;28;20325;-75
2022/04/25 12:29:16;;;;;;;3.60;3.20;;;;;;;16.73;nan;98852.38;5014867;28;20237;-75
2022/04/25 12:31:49;;;;;;;3.43;3.13;;;;;;;16.71;nan;98847.22;5014979;28;20549;-75
2022/04/25 12:34:19;;;;;;;3.38;3.08;;;;;;;16.65;nan;98847.84;5011182;28;20206;-75
2022/04/25 12:36:55;;;;;;;3.55;3.25;;;;;;;16.60;nan;98840.34;5018206;28;20695;-75